Valparaiso, Brazil
Current Conditions -  °F | °C
As of 12:00 PM on Sunday 21 Dec 2014 (Local Time) from SBDN Reporting Station
Broken Clouds Broken Clouds  
Wind Chill: 84°   Ceiling: 9000
Heat Index: 88°   Visibility: 6mi
Dew Point: 70°   Wind: 8mph
Humidity: 62%   Direction: 330°NNW
Pressure: 29.88"   Gusts: NA
Location:  21.23°S, 50.87°W
Report Text: SBDN 211400Z 33007KT 9999 SCT026 BKN090 29/21 Q1012
Loading
Personal Weather Stations






























Interactive Weather Map New forecast layout! Learn more

10-Day Weather Forecast

Advertisements
Track Severe Weather on mobile